Time;durP1;ratioP1;P1;durP2;ratioP2;P2;SDS_P1;SDS_P2;PMS_P1;PMS_P2;Temp;Humidity;BMP_temperature;BMP_pressure;BME280_temperature;BME280_humidity;BME280_pressure;Samples;Min_cycle;Max_cycle;Signal;HPM_P1;HPM_P2
2023/09/24 00:00:10;;;;;;;5.28;4.97;;;;;;;10.44;100.00;101859.28;6085222;23;20016;-67
2023/09/24 00:02:38;;;;;;;5.38;5.07;;;;;;;10.22;100.00;101833.72;6054103;23;20030;-67
2023/09/24 00:05:06;;;;;;;5.00;4.78;;;;;;;10.36;100.00;101870.03;6083068;23;20026;-67
2023/09/24 00:07:33;;;;;;;5.25;4.95;;;;;;;10.24;100.00;101855.50;6056345;23;20662;-66
2023/09/24 00:10:00;;;;;;;5.22;4.93;;;;;;;10.10;100.00;101832.38;6030449;23;20514;-66
2023/09/24 00:12:27;;;;;;;5.50;5.18;;;;;;;10.33;100.00;101886.75;6083278;23;20037;-66
2023/09/24 00:14:56;;;;;;;5.32;5.00;;;;;;;10.28;100.00;101887.75;6054098;23;20022;-66
2023/09/24 00:17:23;;;;;;;5.20;4.90;;;;;;;10.29;100.00;101897.34;6059202;23;20050;-66
2023/09/24 00:19:49;;;;;;;5.15;4.95;;;;;;;10.26;100.00;101889.56;6027698;23;20031;-66
2023/09/24 00:22:18;;;;;;;7.47;4.90;;;;;;;10.23;100.00;101882.66;6082265;23;20089;-68
2023/09/24 00:24:46;;;;;;;5.00;4.70;;;;;;;10.19;100.00;101886.28;6056100;23;20018;-68
2023/09/24 00:27:14;;;;;;;4.78;4.57;;;;;;;9.65;100.00;101797.94;6082785;23;20037;-67
2023/09/24 00:29:41;;;;;;;5.60;5.20;;;;;;;10.14;100.00;101885.56;6050367;23;20022;-66
2023/09/24 00:32:08;;;;;;;4.97;4.72;;;;;;;9.50;100.00;101787.03;6083485;23;20092;-66
2023/09/24 00:34:35;;;;;;;5.30;5.00;;;;;;;10.04;100.00;101865.78;6050566;23;20713;-66
2023/09/24 00:37:01;;;;;;;5.88;5.45;;;;;;;10.10;100.00;101878.69;6054397;23;20535;-66
2023/09/24 00:39:28;;;;;;;5.18;4.95;;;;;;;10.08;100.00;101877.88;6056502;23;20023;-66
2023/09/24 00:41:55;;;;;;;5.03;4.78;;;;;;;10.05;100.00;101881.47;6055616;23;20026;-66
2023/09/24 00:44:22;;;;;;;4.90;4.60;;;;;;;10.02;100.00;101884.19;6053101;23;20617;-66
2023/09/24 00:46:49;;;;;;;5.00;4.80;;;;;;;9.53;100.00;101815.75;6081091;23;20021;-66
2023/09/24 00:49:15;;;;;;;6.63;6.32;;;;;;;9.95;100.00;101895.78;6050480;23;20023;-67
2023/09/24 00:51:42;;;;;;;4.90;4.70;;;;;;;9.94;100.00;101896.66;6083854;23;20024;-65
2023/09/24 00:54:10;;;;;;;5.20;4.90;;;;;;;9.91;100.00;101897.63;6053717;23;20027;-66
2023/09/24 00:56:38;;;;;;;4.90;4.70;;;;;;;9.87;100.00;101897.78;6082155;23;20092;-67
2023/09/24 00:59:06;;;;;;;4.75;4.55;;;;;;;9.22;100.00;101809.69;6053675;23;21371;-66
2023/09/24 01:01:34;;;;;;;5.05;4.85;;;;;;;9.73;100.00;101903.44;6082343;23;20056;-67
2023/09/24 01:04:05;;;;;;;5.20;5.00;;;;;;;9.69;100.00;101900.03;6050361;23;20483;-66
2023/09/24 01:06:33;;;;;;;4.80;4.60;;;;;;;9.43;100.00;101861.47;6055165;23;20097;-66
2023/09/24 01:09:00;;;;;;;5.05;4.78;;;;;;;9.66;100.00;101910.63;6053791;23;20495;-66
2023/09/24 01:11:27;;;;;;;4.90;4.70;;;;;;;9.64;100.00;101911.53;6055581;23;20053;-67
2023/09/24 01:13:54;;;;;;;7.53;5.30;;;;;;;9.17;100.00;101838.63;6082723;23;20030;-66
2023/09/24 01:16:20;;;;;;;5.38;4.97;;;;;;;9.60;100.00;101923.88;6052722;23;20026;-68
2023/09/24 01:18:47;;;;;;;4.93;4.72;;;;;;;9.57;100.00;101916.97;6080521;23;20522;-68
2023/09/24 01:21:15;;;;;;;4.82;4.55;;;;;;;9.54;100.00;101924.94;6051774;23;20032;-65
2023/09/24 01:23:44;;;;;;;4.70;4.40;;;;;;;9.50;100.00;101931.16;6083337;23;20042;-65
2023/09/24 01:26:14;;;;;;;4.72;4.53;;;;;;;9.48;100.00;101925.09;6054619;23;20090;-68
2023/09/24 01:28:43;;;;;;;4.93;4.72;;;;;;;9.45;100.00;101938.28;6081691;23;20021;-66
2023/09/24 01:31:10;;;;;;;5.60;5.10;;;;;;;9.31;100.00;101914.22;6052741;23;20018;-66
2023/09/24 01:33:38;;;;;;;4.80;4.60;;;;;;;9.37;100.00;101940.25;6081334;23;20026;-66
2023/09/24 01:36:10;;;;;;;5.00;4.80;;;;;;;9.35;100.00;101931.56;6050259;23;20536;-66
2023/09/24 01:38:40;;;;;;;4.63;4.43;;;;;;;9.32;100.00;101934.25;6050142;23;20038;-65
2023/09/24 01:41:11;;;;;;;4.68;4.47;;;;;;;9.30;100.00;101939.56;6029620;23;20031;-66
2023/09/24 01:43:39;;;;;;;5.50;5.07;;;;;;;9.02;100.00;101894.03;6082466;23;20018;-65
2023/09/24 01:46:10;;;;;;;4.90;4.70;;;;;;;9.31;100.00;101940.41;6054131;23;20057;-66
2023/09/24 01:48:37;;;;;;;4.80;4.60;;;;;;;9.24;100.00;101944.97;6084372;23;20022;-66
2023/09/24 01:51:07;;;;;;;5.28;4.97;;;;;;;8.84;100.00;101877.94;6050124;23;20022;-66
2023/09/24 01:53:38;;;;;;;4.78;4.57;;;;;;;8.90;100.00;101900.44;6052223;23;20030;-66
2023/09/24 01:56:06;;;;;;;5.20;4.90;;;;;;;9.18;100.00;101947.72;6081322;23;20488;-66
2023/09/24 01:58:32;;;;;;;4.72;4.53;;;;;;;9.16;100.00;101957.38;6061642;23;20023;-66
2023/09/24 02:00:59;;;;;;;7.10;4.80;;;;;;;9.15;100.00;101956.53;6063335;23;20085;-66
2023/09/24 02:03:26;;;;;;;5.05;4.75;;;;;;;9.14;100.00;101957.44;6092742;23;20018;-66
2023/09/24 02:05:53;;;;;;;5.38;5.07;;;;;;;9.06;100.00;101951.53;6062569;23;20829;-66
2023/09/24 02:08:20;;;;;;;6.07;4.38;;;;;;;9.05;100.00;101955.06;6061666;23;20033;-66
2023/09/24 02:10:47;;;;;;;4.63;4.40;;;;;;;8.90;100.00;101934.47;6064043;23;20504;-66
2023/09/24 02:13:14;;;;;;;5.22;4.93;;;;;;;9.06;100.00;101966.38;6087370;23;20097;-66
2023/09/24 02:15:43;;;;;;;4.85;4.65;;;;;;;8.84;100.00;101925.06;6060956;23;20056;-66
2023/09/24 02:18:09;;;;;;;4.80;4.60;;;;;;;8.61;100.00;101886.34;6087510;23;20025;-67
2023/09/24 02:20:36;;;;;;;5.05;4.78;;;;;;;8.96;100.00;101960.50;6059705;23;20021;-67
2023/09/24 02:23:04;;;;;;;4.88;4.68;;;;;;;8.82;100.00;101950.41;6089128;23;20042;-67
2023/09/24 02:25:36;;;;;;;6.57;5.15;;;;;;;8.96;100.00;101973.59;6060781;23;20109;-67
2023/09/24 02:28:04;;;;;;;4.95;4.65;;;;;;;8.88;100.00;101962.47;6088098;23;20030;-66
2023/09/24 02:30:31;;;;;;;4.78;4.57;;;;;;;8.89;100.00;101972.91;6037168;23;20683;-66
2023/09/24 02:33:00;;;;;;;5.00;4.60;;;;;;;8.83;100.00;101965.19;6034859;23;20034;-67
2023/09/24 02:35:27;;;;;;;4.93;4.63;;;;;;;8.86;100.00;101972.09;6060603;23;20035;-67
2023/09/24 02:37:54;;;;;;;5.50;5.10;;;;;;;8.85;100.00;101979.09;6089809;23;20089;-66
2023/09/24 02:40:23;;;;;;;7.38;5.18;;;;;;;8.72;100.00;101970.72;6062236;23;20025;-66
2023/09/24 02:42:53;;;;;;;4.75;4.47;;;;;;;8.81;100.00;101976.63;6062642;23;20030;-67
2023/09/24 02:45:20;;;;;;;5.07;4.78;;;;;;;8.39;100.00;101915.63;6091352;23;20024;-67
2023/09/24 02:47:49;;;;;;;5.55;5.00;;;;;;;8.65;100.00;101976.13;6061575;23;20081;-67
2023/09/24 02:50:18;;;;;;;5.60;5.30;;;;;;;8.68;100.00;101989.13;6090108;23;20031;-66
2023/09/24 02:52:45;;;;;;;5.97;5.57;;;;;;;8.66;100.00;101980.44;6056948;23;20057;-67
2023/09/24 02:55:16;;;;;;;6.47;5.22;;;;;;;8.64;100.00;101983.13;6087599;23;20013;-67
2023/09/24 02:57:44;;;;;;;5.07;4.78;;;;;;;8.62;100.00;101986.66;6059303;23;20558;-67
2023/09/24 03:00:18;;;;;;;5.25;4.82;;;;;;;8.18;100.00;101913.50;6089164;23;20014;-66
2023/09/24 03:02:45;;;;;;;5.00;4.70;;;;;;;8.62;100.00;101991.88;6057409;23;20034;-66
2023/09/24 03:05:12;;;;;;;5.55;5.15;;;;;;;8.18;100.00;101923.97;6058265;23;20006;-66
2023/09/24 03:07:44;;;;;;;5.07;4.78;;;;;;;8.17;100.00;101930.09;6092515;23;20033;-66
2023/09/24 03:10:13;;;;;;;5.35;5.05;;;;;;;8.29;100.00;101962.94;6030958;23;20650;-66
2023/09/24 03:12:40;;;;;;;5.88;4.88;;;;;;;8.55;100.00;102012.94;6086241;23;20670;-66
2023/09/24 03:15:10;;;;;;;5.43;5.00;;;;;;;8.53;100.00;102019.97;6051150;23;20468;-67
2023/09/24 03:17:41;;;;;;;5.60;5.18;;;;;;;7.97;100.00;101923.53;6056552;23;20037;-67
2023/09/24 03:20:15;;;;;;;4.78;4.57;;;;;;;8.47;100.00;102006.19;6077617;23;20084;-67
2023/09/24 03:22:42;;;;;;;5.10;4.70;;;;;;;8.52;100.00;102023.50;6056834;23;20089;-66
2023/09/24 03:25:11;;;;;;;5.32;4.93;;;;;;;8.51;100.00;102024.38;6054870;23;20026;-67
2023/09/24 03:27:39;;;;;;;4.95;4.65;;;;;;;8.23;100.00;101982.25;6057245;23;20026;-66
2023/09/24 03:30:09;;;;;;;4.50;4.30;;;;;;;8.25;100.00;101988.31;6053257;23;20026;-67
2023/09/24 03:32:37;;;;;;;5.18;4.88;;;;;;;8.46;100.00;102023.66;6079570;23;20033;-67
2023/09/24 03:35:06;;;;;;;5.10;4.68;;;;;;;8.27;100.00;102004.81;6054523;23;20088;-66
2023/09/24 03:37:32;;;;;;;5.30;4.50;;;;;;;8.15;100.00;101992.00;6055785;23;20627;-66
2023/09/24 03:39:59;;;;;;;5.32;4.97;;;;;;;8.38;100.00;102036.84;6027899;23;20014;-67
2023/09/24 03:42:25;;;;;;;4.88;4.57;;;;;;;8.40;100.00;102070.84;6083559;23;20029;-67
2023/09/24 03:44:52;;;;;;;5.00;4.68;;;;;;;8.29;100.00;102031.81;6049832;23;20056;-66
2023/09/24 03:47:20;;;;;;;5.90;5.50;;;;;;;8.39;100.00;102054.25;6052258;23;20456;-66
2023/09/24 03:49:46;;;;;;;4.75;4.45;;;;;;;8.38;100.00;102057.78;6080676;23;20030;-67
2023/09/24 03:52:12;;;;;;;6.55;6.25;;;;;;;8.36;100.00;102058.72;6030072;23;20499;-67
2023/09/24 03:54:39;;;;;;;4.97;4.55;;;;;;;8.22;100.00;102037.19;6081020;23;20048;-66
2023/09/24 03:57:05;;;;;;;4.80;4.60;;;;;;;8.36;100.00;102056.94;6056182;23;20040;-66
2023/09/24 03:59:36;;;;;;;4.57;4.38;;;;;;;8.31;100.00;102066.63;6055063;23;20018;-66
2023/09/24 04:02:08;;;;;;;5.10;4.80;;;;;;;8.34;100.00;102074.44;6052990;23;20032;-67
2023/09/24 04:04:36;;;;;;;4.57;4.32;;;;;;;8.34;100.00;102071.81;6053787;23;20018;-67
2023/09/24 04:07:04;;;;;;;5.10;4.80;;;;;;;8.36;100.00;102064.81;6054471;23;20080;-66
2023/09/24 04:09:33;;;;;;;5.50;5.03;;;;;;;8.33;100.00;102064.00;6083908;23;20021;-67
2023/09/24 04:12:00;;;;;;;4.47;4.25;;;;;;;8.30;100.00;102075.38;6054530;23;20078;-66
2023/09/24 04:14:27;;;;;;;5.05;4.75;;;;;;;8.31;100.00;102077.09;6084198;23;20018;-66
2023/09/24 04:16:55;;;;;;;5.18;4.88;;;;;;;8.27;100.00;102077.19;6055322;23;20055;-67
2023/09/24 04:19:23;;;;;;;5.53;5.15;;;;;;;8.17;100.00;102069.53;6052965;23;20017;-66
2023/09/24 04:21:50;;;;;;;4.65;4.43;;;;;;;7.90;100.00;102029.13;6078526;23;20041;-67
2023/09/24 04:24:20;;;;;;;5.00;4.70;;;;;;;8.02;100.00;102046.31;6055863;23;20022;-66
2023/09/24 04:26:47;;;;;;;4.70;4.50;;;;;;;7.89;100.00;102044.84;6077984;23;21459;-67
2023/09/24 04:29:15;;;;;;;4.85;4.55;;;;;;;8.11;100.00;102079.25;6053030;23;20010;-67
2023/09/24 04:31:44;;;;;;;5.03;4.72;;;;;;;8.09;100.00;102087.13;6057008;23;20029;-66
2023/09/24 04:34:12;;;;;;;4.53;4.32;;;;;;;7.45;100.00;101995.13;6054874;23;20097;-67
2023/09/24 04:36:40;;;;;;;4.28;4.07;;;;;;;8.04;100.00;102102.06;6086235;23;20079;-66
2023/09/24 04:39:10;;;;;;;12.23;4.75;;;;;;;8.01;100.00;102101.25;6053728;23;20414;-66
2023/09/24 04:41:42;;;;;;;4.57;4.38;;;;;;;7.54;100.00;102033.28;6054865;23;20037;-67
2023/09/24 04:44:09;;;;;;;4.30;4.10;;;;;;;7.98;100.00;102112.63;6083914;23;20025;-66
2023/09/24 04:46:36;;;;;;;4.47;4.28;;;;;;;7.64;100.00;102054.88;6054728;23;20031;-66
2023/09/24 04:49:05;;;;;;;4.65;4.35;;;;;;;7.84;100.00;102097.19;6052461;23;20119;-66
2023/09/24 04:51:34;;;;;;;5.00;4.60;;;;;;;7.90;100.00;102136.28;6080113;23;20037;-67
2023/09/24 04:54:01;;;;;;;4.90;4.68;;;;;;;7.88;100.00;102119.78;6052262;23;20022;-68
2023/09/24 04:56:28;;;;;;;4.50;4.30;;;;;;;7.89;100.00;102128.47;6049529;23;20030;-68
2023/09/24 04:58:55;;;;;;;5.05;4.65;;;;;;;7.44;100.00;102065.66;6083657;23;20026;-68
2023/09/24 05:01:22;;;;;;;4.57;4.38;;;;;;;7.89;100.00;102126.72;6054837;23;20113;-68
2023/09/24 05:03:50;;;;;;;5.65;5.25;;;;;;;7.88;100.00;102130.22;6081587;23;20033;-68
2023/09/24 05:06:18;;;;;;;4.82;4.55;;;;;;;7.69;100.00;102103.53;6053843;23;20033;-68
2023/09/24 05:08:48;;;;;;;5.68;4.90;;;;;;;7.91;100.00;102130.16;6085513;23;20111;-67
2023/09/24 05:11:15;;;;;;;5.00;4.60;;;;;;;7.91;100.00;102139.75;6052838;23;20042;-68
2023/09/24 05:13:41;;;;;;;4.72;4.43;;;;;;;7.94;100.00;102132.72;6084540;23;20018;-68
2023/09/24 05:16:08;;;;;;;5.25;4.88;;;;;;;7.53;100.00;102068.97;6054190;23;20029;-68
2023/09/24 05:18:35;;;;;;;4.25;4.05;;;;;;;7.98;100.00;102136.16;6080653;23;20030;-68
2023/09/24 05:21:06;;;;;;;4.35;4.15;;;;;;;8.03;100.00;102138.69;6051476;23;20298;-66
2023/09/24 05:23:33;;;;;;;4.35;4.15;;;;;;;8.01;100.00;102138.69;6056323;23;20026;-68
2023/09/24 05:25:59;;;;;;;4.88;4.57;;;;;;;8.08;100.00;102152.50;6055305;23;20046;-69
2023/09/24 05:28:26;;;;;;;4.80;4.60;;;;;;;8.10;100.00;102158.59;6054657;23;20061;-69
2023/09/24 05:30:54;;;;;;;4.65;4.45;;;;;;;8.12;100.00;102165.53;6051132;23;20007;-69
2023/09/24 05:33:21;;;;;;;5.57;4.53;;;;;;;8.13;100.00;102166.38;6080761;23;20026;-67
2023/09/24 05:35:52;;;;;;;4.18;3.97;;;;;;;8.14;100.00;102174.22;6054195;23;20026;-67
2023/09/24 05:38:19;;;;;;;4.43;4.22;;;;;;;7.86;100.00;102129.41;6052583;23;20022;-67
2023/09/24 05:40:45;;;;;;;4.78;4.47;;;;;;;8.15;100.00;102175.06;6084243;23;20967;-69
2023/09/24 05:43:12;;;;;;;4.53;4.32;;;;;;;8.17;100.00;102183.72;6056115;23;20089;-69
2023/09/24 05:45:49;;;;;;;5.07;4.78;;;;;;;7.85;100.00;102140.72;6053964;23;20030;-69
2023/09/24 05:48:17;;;;;;;17.63;16.73;;;;;;;8.20;100.00;102194.16;6013834;23;20171;-71
2023/09/24 05:50:44;;;;;;;4.30;4.10;;;;;;;7.81;100.00;102118.16;6013861;23;20032;-69
2023/09/24 05:53:12;;;;;;;4.82;4.60;;;;;;;8.22;100.00;102184.53;6054301;23;20633;-70
2023/09/24 05:55:38;;;;;;;5.35;4.95;;;;;;;8.05;100.00;102152.59;6076963;23;20089;-67
2023/09/24 05:58:06;;;;;;;4.30;4.10;;;;;;;7.99;100.00;102128.25;6055177;23;20086;-69
2023/09/24 06:00:36;;;;;;;4.50;4.30;;;;;;;8.38;100.00;102208.66;6080997;23;20030;-69
2023/09/24 06:03:03;;;;;;;4.50;4.20;;;;;;;8.32;100.00;102191.31;6052618;23;20030;-69
2023/09/24 06:05:30;;;;;;;4.97;4.70;;;;;;;8.47;100.00;102212.88;6080906;23;20006;-69
2023/09/24 06:07:57;;;;;;;4.93;4.63;;;;;;;8.51;100.00;102219.75;6050869;23;20028;-69
2023/09/24 06:10:23;;;;;;;4.35;4.15;;;;;;;8.55;100.00;102216.19;6053015;23;20128;-68
2023/09/24 06:12:50;;;;;;;4.45;4.18;;;;;;;8.57;100.00;102222.25;6083360;23;20038;-69
2023/09/24 06:15:17;;;;;;;4.45;4.25;;;;;;;8.61;100.00;102225.69;6054868;23;20092;-69
2023/09/24 06:17:44;;;;;;;4.93;4.63;;;;;;;8.63;100.00;102224.75;6051983;23;20030;-69
2023/09/24 06:20:12;;;;;;;4.63;4.35;;;;;;;7.93;100.00;102112.69;6027329;23;20567;-69
2023/09/24 06:22:38;;;;;;;4.72;4.43;;;;;;;8.75;100.00;102229.75;6051543;23;20034;-69
2023/09/24 06:25:05;;;;;;;4.90;4.60;;;;;;;7.95;100.00;102090.00;6050676;23;20082;-68
2023/09/24 06:27:32;;;;;;;4.85;4.55;;;;;;;8.88;100.00;102233.00;6050448;23;20128;-68
2023/09/24 06:29:58;;;;;;;5.53;5.03;;;;;;;7.19;100.00;101962.50;6078164;23;20021;-69
2023/09/24 06:32:29;;;;;;;5.10;4.75;;;;;;;9.02;100.00;102240.56;6050666;23;20045;-69
2023/09/24 06:34:55;;;;;;;4.68;4.40;;;;;;;9.09;100.00;102241.28;6078340;23;20010;-68
2023/09/24 06:37:22;;;;;;;4.90;4.60;;;;;;;9.17;100.00;102242.84;6055398;23;20027;-69
2023/09/24 06:39:48;;;;;;;5.65;5.25;;;;;;;9.26;100.00;102244.41;6051482;23;20036;-69
2023/09/24 06:42:15;;;;;;;4.50;4.30;;;;;;;9.37;100.00;102246.78;6051815;23;20037;-68
2023/09/24 06:44:41;;;;;;;4.70;4.50;;;;;;;9.47;100.00;102250.06;6053630;23;20029;-69
2023/09/24 06:47:08;;;;;;;6.65;4.47;;;;;;;9.31;100.00;102205.88;6084442;23;20026;-69
2023/09/24 06:49:34;;;;;;;4.60;4.40;;;;;;;9.68;100.00;102253.94;6055413;23;20006;-69
2023/09/24 06:52:01;;;;;;;5.35;4.95;;;;;;;9.81;100.00;102251.91;6077944;23;20045;-68
2023/09/24 06:54:27;;;;;;;4.82;4.53;;;;;;;9.97;100.00;102256.72;6055408;23;20046;-69
2023/09/24 06:56:54;;;;;;;4.85;4.55;;;;;;;9.89;100.00;102214.09;6031784;23;20034;-68
2023/09/24 06:59:20;;;;;;;5.00;4.70;;;;;;;9.29;100.00;102097.63;6080413;23;20032;-68
2023/09/24 07:01:47;;;;;;;5.40;5.00;;;;;;;10.36;100.00;102254.06;6056724;23;20026;-69
2023/09/24 07:04:14;;;;;;;5.47;4.95;;;;;;;10.56;100.00;102261.38;6075465;23;20459;-69
2023/09/24 07:06:41;;;;;;;5.05;4.75;;;;;;;10.70;100.00;102257.50;6055371;23;20042;-69
2023/09/24 07:09:08;;;;;;;5.50;5.15;;;;;;;10.37;100.00;102171.78;6083556;23;20037;-69
2023/09/24 07:11:37;;;;;;;5.57;5.18;;;;;;;10.92;100.00;102234.97;6054467;23;20046;-69
2023/09/24 07:14:05;;;;;;;4.88;4.68;;;;;;;11.08;100.00;102234.53;6051969;23;20027;-69
2023/09/24 07:16:32;;;;;;;4.97;4.72;;;;;;;10.91;100.00;102156.25;6051258;23;20038;-68
2023/09/24 07:18:59;;;;;;;5.70;5.30;;;;;;;11.37;100.00;102200.34;6081533;23;20042;-69
2023/09/24 07:21:29;;;;;;;4.93;4.63;;;;;;;11.47;100.00;102182.53;6056935;23;20623;-69
2023/09/24 07:24:02;;;;;;;5.70;4.82;;;;;;;11.46;100.00;102164.16;6082285;23;20109;-69
2023/09/24 07:26:29;;;;;;;5.50;5.10;;;;;;;11.80;100.00;102182.31;6053829;23;20037;-69
2023/09/24 07:28:55;;;;;;;5.32;4.88;;;;;;;11.90;100.00;102160.06;6083385;23;20053;-68
2023/09/24 07:31:23;;;;;;;5.70;5.30;;;;;;;12.02;100.00;102158.78;6056117;23;20045;-69
2023/09/24 07:33:57;;;;;;;5.20;4.90;;;;;;;12.27;100.00;102156.16;6055001;23;20022;-69
2023/09/24 07:36:24;;;;;;;5.63;5.22;;;;;;;12.42;100.00;102153.88;6084436;23;20034;-69
2023/09/24 07:38:53;;;;;;;5.90;5.55;;;;;;;12.53;100.00;102149.09;6053493;23;20029;-69
2023/09/24 07:41:21;;;;;;;5.70;5.40;;;;;;;12.65;100.00;102142.50;6055899;23;20049;-69
2023/09/24 07:43:48;;;;;;;5.57;5.25;;;;;;;12.62;100.00;102109.22;6084322;23;20046;-69
2023/09/24 07:46:15;;;;;;;5.25;4.95;;;;;;;12.73;100.00;102091.25;6055130;23;20133;-68
2023/09/24 07:48:43;;;;;;;5.50;5.20;;;;;;;12.83;100.00;102082.97;6082009;23;20034;-69
2023/09/24 07:51:11;;;;;;;5.63;5.07;;;;;;;12.90;100.00;102058.09;6053607;23;20035;-69
2023/09/24 07:53:37;;;;;;;5.63;5.32;;;;;;;13.05;100.00;102043.44;6083528;23;20386;-70
2023/09/24 07:56:09;;;;;;;5.47;5.18;;;;;;;12.37;100.00;101903.97;6049938;23;20787;-70
2023/09/24 07:58:38;;;;;;;5.30;5.00;;;;;;;12.96;100.00;101968.25;6083386;23;20029;-69
2023/09/24 08:01:12;;;;;;;5.57;5.28;;;;;;;13.32;100.00;101997.50;6052920;23;20034;-68
2023/09/24 08:03:40;;;;;;;5.18;4.85;;;;;;;13.12;100.00;101947.41;6059165;23;20018;-69
2023/09/24 08:06:07;;;;;;;5.82;5.47;;;;;;;13.54;100.00;102002.72;6058364;23;20046;-69
2023/09/24 08:08:34;;;;;;;6.18;5.05;;;;;;;13.65;100.00;101988.19;6056865;23;20112;-70
2023/09/24 08:11:19;;;;;;;5.47;5.00;;;;;;;13.40;100.00;101883.78;6082505;23;20864;-69
2023/09/24 08:13:46;;;;;;;5.32;5.03;;;;;;;13.88;100.00;101921.19;6055257;23;20042;-69
2023/09/24 08:16:16;;;;;;;6.18;5.32;;;;;;;13.62;100.00;101867.00;6081769;23;20106;-69
2023/09/24 08:18:44;;;;;;;5.70;5.40;;;;;;;14.14;100.00;101938.44;6053046;23;20436;-69
2023/09/24 08:21:11;;;;;;;5.43;5.13;;;;;;;14.25;100.00;101936.16;6056731;23;20424;-69
2023/09/24 08:23:37;;;;;;;5.32;5.03;;;;;;;14.38;100.00;101919.72;6084015;23;20108;-68
2023/09/24 08:26:04;;;;;;;5.53;5.22;;;;;;;14.40;100.00;101875.59;6056820;23;20054;-69
2023/09/24 08:28:30;;;;;;;5.68;5.28;;;;;;;14.25;100.00;101827.03;6083490;23;20028;-69
2023/09/24 08:30:57;;;;;;;5.25;4.95;;;;;;;14.38;100.00;101846.63;6056933;23;20691;-69
2023/09/24 08:33:23;;;;;;;5.70;5.30;;;;;;;14.43;100.00;101838.47;6056434;23;20015;-68
2023/09/24 08:35:50;;;;;;;5.80;5.40;;;;;;;14.45;100.00;101821.63;6081226;23;20034;-69
2023/09/24 08:38:16;;;;;;;5.88;5.47;;;;;;;14.52;100.00;101803.66;6058510;23;20033;-69
2023/09/24 08:40:43;;;;;;;6.00;5.60;;;;;;;14.67;100.00;101807.34;6079512;23;20077;-69
2023/09/24 08:43:15;;;;;;;5.43;5.13;;;;;;;14.78;100.00;101826.13;6056150;23;20109;-69
2023/09/24 08:45:42;;;;;;;5.60;5.07;;;;;;;14.85;100.00;101795.78;6084140;23;20021;-71
2023/09/24 08:48:09;;;;;;;6.70;6.40;;;;;;;14.77;100.00;101753.06;6048820;23;20052;-70
2023/09/24 08:50:41;;;;;;;5.70;5.32;;;;;;;15.05;100.00;101763.00;6084103;23;20014;-70
2023/09/24 08:53:12;;;;;;;5.82;5.47;;;;;;;14.96;98.09;101694.81;6056654;23;20078;-71
2023/09/24 08:55:46;;;;;;;5.63;5.13;;;;;;;15.32;98.12;101741.31;6052864;23;20097;-71
2023/09/24 08:58:13;;;;;;;5.47;5.18;;;;;;;15.42;95.06;101699.34;6078157;23;20022;-70
2023/09/24 09:00:42;;;;;;;5.13;4.90;;;;;;;14.93;93.72;101581.31;6054980;23;20302;-71
2023/09/24 09:03:08;;;;;;;5.07;4.88;;;;;;;14.26;94.68;101478.44;6082038;23;20025;-70
2023/09/24 09:05:37;;;;;;;5.03;4.63;;;;;;;15.81;93.89;101701.50;6054625;23;20641;-71
2023/09/24 09:08:04;;;;;;;5.65;5.20;;;;;;;15.89;92.71;101677.22;6050646;23;20144;-71
2023/09/24 09:10:35;;;;;;;5.20;4.90;;;;;;;15.76;92.31;101634.75;6083335;23;20041;-71
2023/09/24 09:13:09;;;;;;;5.10;4.90;;;;;;;16.14;87.01;101568.06;6053727;23;20038;-71
2023/09/24 09:15:40;;;;;;;5.40;5.10;;;;;;;16.25;86.63;101594.72;6083986;23;20030;-71
2023/09/24 09:18:23;;;;;;;5.45;5.10;;;;;;;16.40;87.20;101615.91;6053693;23;20052;-71
2023/09/24 09:20:51;;;;;;;5.25;5.00;;;;;;;16.16;84.64;101507.91;6049582;23;20014;-71
2023/09/24 09:23:30;;;;;;;5.40;5.10;;;;;;;16.70;82.95;101542.44;6077341;23;20115;-71
2023/09/24 09:25:56;;;;;;;4.93;4.72;;;;;;;16.89;83.04;101570.41;6052182;23;20050;-73
2023/09/24 09:28:28;;;;;;;5.45;5.05;;;;;;;16.67;78.66;101419.84;6077841;23;20014;-71
2023/09/24 09:31:04;;;;;;;5.10;4.90;;;;;;;17.08;77.23;101446.28;6052797;23;20026;-73
2023/09/24 09:33:37;;;;;;;5.22;4.93;;;;;;;17.19;76.97;101455.31;6052479;23;20041;-74
2023/09/24 09:36:04;;;;;;;5.10;4.90;;;;;;;17.18;78.13;101474.81;6073122;23;20065;-73
2023/09/24 09:38:30;;;;;;;5.50;5.20;;;;;;;17.33;75.95;101457.84;6050965;23;20046;-74
2023/09/24 09:40:59;;;;;;;5.20;4.93;;;;;;;16.91;75.88;101367.84;6051641;23;20034;-73
2023/09/24 09:43:29;;;;;;;4.90;4.70;;;;;;;17.39;73.15;101361.91;6054661;23;20064;-72
2023/09/24 09:45:57;;;;;;;6.03;5.55;;;;;;;17.46;74.88;101436.63;6052049;23;20081;-72
2023/09/24 09:48:29;;;;;;;5.60;5.30;;;;;;;17.65;75.25;101478.69;6052660;23;20742;-71
2023/09/24 09:51:07;;;;;;;5.70;5.40;;;;;;;17.78;73.58;101445.00;6050815;23;20477;-71
2023/09/24 09:53:35;;;;;;;5.40;4.97;;;;;;;17.83;73.54;101437.59;6080944;23;20074;-71
2023/09/24 09:56:06;;;;;;;5.70;5.40;;;;;;;17.87;72.03;101385.97;6050809;23;20120;-71
2023/09/24 09:58:36;;;;;;;5.32;5.03;;;;;;;17.93;71.86;101390.81;6079369;23;20014;-72
2023/09/24 10:01:07;;;;;;;5.40;5.00;;;;;;;18.06;72.91;101459.00;6052745;23;21865;-71
2023/09/24 10:03:44;;;;;;;5.38;5.07;;;;;;;18.25;69.53;101376.16;6025152;23;20015;-71
2023/09/24 10:06:13;;;;;;;6.25;5.75;;;;;;;18.17;67.80;101283.75;6049454;23;20057;-71
2023/09/24 10:08:41;;;;;;;5.50;5.20;;;;;;;18.29;68.33;101354.56;6081802;23;20041;-72
2023/09/24 10:11:28;;;;;;;5.43;5.13;;;;;;;18.24;67.92;101314.22;6054519;23;20030;-71
2023/09/24 10:13:54;;;;;;;5.35;5.13;;;;;;;18.22;68.43;101345.38;6079021;23;20715;-70
2023/09/24 10:16:24;;;;;;;5.80;5.40;;;;;;;18.64;68.18;101387.44;6056809;23;20034;-70
2023/09/24 10:19:04;;;;;;;5.93;5.63;;;;;;;18.67;67.80;101408.47;6082666;23;20013;-70
2023/09/24 10:21:35;;;;;;;5.60;5.30;;;;;;;18.58;68.12;101367.47;6056870;23;20093;-70
2023/09/24 10:24:14;;;;;;;5.70;5.40;;;;;;;18.64;69.28;101435.28;6057056;23;20023;-70
2023/09/24 10:27:07;;;;;;;5.78;5.38;;;;;;;18.64;68.42;101411.34;6058628;23;20310;-69
2023/09/24 10:29:46;;;;;;;7.35;5.70;;;;;;;18.68;66.41;101335.72;6053712;23;20010;-70
2023/09/24 10:32:13;;;;;;;5.60;5.30;;;;;;;18.43;66.58;101311.00;6057193;23;20026;-69
2023/09/24 10:34:54;;;;;;;7.50;5.40;;;;;;;18.72;67.07;101382.38;6085344;23;20101;-70
2023/09/24 10:37:22;;;;;;;5.80;5.40;;;;;;;18.57;65.87;101314.44;6057442;23;20040;-69
2023/09/24 10:39:58;;;;;;;5.25;5.05;;;;;;;18.65;64.49;101272.16;6055814;23;20080;-69
2023/09/24 10:42:25;;;;;;;5.70;5.25;;;;;;;18.16;63.74;101182.91;6085485;23;20627;-69
2023/09/24 10:45:07;;;;;;;5.43;5.13;;;;;;;18.83;65.76;101363.84;6052924;23;20076;-70
2023/09/24 10:47:38;;;;;;;5.63;5.32;;;;;;;18.66;63.01;101226.84;6088053;23;20030;-69
2023/09/24 10:50:06;;;;;;;5.25;5.05;;;;;;;18.82;64.76;101332.03;6053539;23;21167;-69
2023/09/24 10:52:51;;;;;;;5.40;5.10;;;;;;;19.12;63.92;101345.63;6055123;23;20038;-70
2023/09/24 10:55:29;;;;;;;5.78;5.45;;;;;;;19.11;62.69;101298.69;6081853;23;20030;-69
2023/09/24 10:58:03;;;;;;;5.80;5.50;;;;;;;19.16;61.19;101250.44;6054327;23;20539;-70
2023/09/24 11:00:31;;;;;;;6.00;5.50;;;;;;;18.67;62.61;101233.84;6055813;23;20075;-70
2023/09/24 11:03:03;;;;;;;6.20;5.80;;;;;;;19.35;63.08;101382.91;6070805;23;20444;-69
2023/09/24 11:05:35;;;;;;;;;;;;;;;19.44;62.11;101360.03;6028495;23;20501;-69
2023/09/24 11:08:01;;;;;;;5.93;5.60;;;;;;;19.49;59.94;101260.19;6026896;23;19926;-69
2023/09/24 11:10:28;;;;;;;5.55;5.25;;;;;;;19.12;62.10;101299.53;6033052;23;20057;-69
2023/09/24 11:13:01;;;;;;;5.97;5.47;;;;;;;19.78;61.25;101344.88;6029921;23;20042;-70
2023/09/24 11:15:30;;;;;;;6.25;5.85;;;;;;;19.93;60.96;101367.63;6056240;23;20086;-70
2023/09/24 11:17:58;;;;;;;5.57;5.28;;;;;;;19.85;57.32;101175.63;6028215;23;20029;-70
2023/09/24 11:20:28;;;;;;;5.60;5.30;;;;;;;19.76;59.62;101343.31;6055828;23;21070;-70
2023/09/24 11:22:56;;;;;;;5.53;5.32;;;;;;;19.97;58.44;101308.78;6028053;23;20027;-69
2023/09/24 11:25:22;;;;;;;5.78;5.45;;;;;;;19.57;59.29;101301.34;6056367;23;20018;-70
2023/09/24 11:27:51;;;;;;;5.50;5.20;;;;;;;20.06;57.46;101308.84;6029167;23;20029;-70
2023/09/24 11:30:20;;;;;;;5.95;5.65;;;;;;;20.11;57.40;101337.78;6050085;23;20050;-70